createdAt,value
2019-01-23T00:01:24.594Z,17.45
2019-01-23T00:03:56.986Z,15.32
2019-01-23T00:06:27.041Z,16.57
2019-01-23T00:08:58.143Z,18.10
2019-01-23T00:11:28.503Z,17.82
2019-01-23T00:13:58.686Z,17.67
2019-01-23T00:16:28.569Z,16.37
2019-01-23T00:18:58.988Z,18.12
2019-01-23T00:21:28.965Z,15.68
2019-01-23T00:24:00.115Z,15.28
2019-01-23T00:26:30.791Z,18.73
2019-01-23T00:29:00.871Z,16.57
2019-01-23T00:31:34.169Z,16.52
2019-01-23T00:34:04.053Z,15.75
2019-01-23T00:36:34.147Z,15.50
2019-01-23T00:39:07.188Z,18.90
2019-01-23T00:41:37.036Z,18.07
2019-01-23T00:44:07.643Z,17.00
2019-01-23T00:46:37.883Z,16.73
2019-01-23T00:49:09.852Z,16.37
2019-01-23T00:51:39.749Z,18.15
2019-01-23T00:54:09.996Z,15.18
2019-01-23T00:56:41.830Z,16.30
2019-01-23T00:59:11.875Z,17.85
2019-01-23T01:01:41.755Z,18.00
2019-01-23T01:04:11.700Z,18.45
2019-01-23T01:06:41.953Z,19.10
2019-01-23T01:09:14.457Z,18.77
2019-01-23T01:11:44.389Z,18.45
2019-01-23T01:14:15.519Z,16.73
2019-01-23T01:16:45.469Z,17.23
2019-01-23T01:19:15.462Z,18.15
2019-01-23T01:21:45.425Z,16.67
2019-01-23T01:24:15.307Z,20.72
2019-01-23T01:26:45.283Z,18.32
2019-01-23T01:29:15.393Z,17.70
2019-01-23T01:31:45.533Z,17.73
2019-01-23T01:34:15.597Z,18.27
2019-01-23T01:36:47.944Z,19.45
2019-01-23T01:39:17.958Z,18.37
2019-01-23T01:41:47.896Z,17.07
2019-01-23T01:44:22.905Z,18.32
2019-01-23T01:46:54.699Z,18.42
2019-01-23T01:49:24.752Z,17.77
2019-01-23T01:51:56.040Z,17.92
2019-01-23T01:54:26.095Z,18.52
2019-01-23T01:56:56.217Z,16.60
2019-01-23T01:59:26.285Z,18.10
2019-01-23T02:01:56.254Z,17.57
2019-01-23T02:04:26.243Z,17.77
2019-01-23T02:06:56.352Z,19.95
2019-01-23T02:09:26.454Z,17.52
2019-01-23T02:11:56.694Z,21.85
2019-01-23T02:14:27.156Z,20.37
2019-01-23T02:16:58.343Z,18.90
2019-01-23T02:19:28.211Z,21.17
2019-01-23T02:21:58.330Z,19.05
2019-01-23T02:24:28.337Z,19.85
2019-01-23T02:26:58.264Z,19.60
2019-01-23T02:29:28.210Z,19.17
2019-01-23T02:31:58.370Z,19.70
2019-01-23T02:34:28.374Z,19.00
2019-01-23T02:36:59.437Z,20.65
2019-01-23T02:39:29.300Z,20.15
2019-01-23T02:41:59.269Z,21.05
2019-01-23T02:44:30.871Z,21.48
2019-01-23T02:47:00.823Z,18.87
2019-01-23T02:49:30.718Z,19.35
2019-01-23T02:52:03.639Z,20.68
2019-01-23T02:54:33.905Z,21.62
2019-01-23T02:57:03.890Z,18.52
2019-01-23T02:59:33.806Z,20.30
2019-01-23T03:02:04.327Z,20.08
2019-01-23T03:04:34.435Z,20.90
2019-01-23T03:07:04.832Z,17.90
2019-01-23T03:09:35.055Z,18.57
2019-01-23T03:12:05.388Z,20.65
2019-01-23T03:14:37.920Z,18.02
2019-01-23T03:17:08.658Z,20.27
2019-01-23T03:19:38.848Z,18.82
2019-01-23T03:24:47.057Z,19.60
2019-01-23T03:27:23.678Z,19.55
2019-01-23T03:30:01.680Z,20.62
2019-01-23T03:32:56.622Z,17.60
2019-01-23T03:35:32.262Z,19.92
2019-01-23T03:38:44.944Z,21.02
2019-01-23T03:41:27.851Z,20.45
2019-01-23T03:44:07.256Z,17.92
2019-01-23T03:47:21.166Z,20.50
2019-01-23T03:50:36.111Z,19.42
2019-01-23T03:53:49.335Z,18.87
2019-01-23T03:56:43.643Z,17.70
2019-01-23T03:59:41.234Z,18.62
2019-01-23T04:02:27.208Z,21.55
2019-01-23T04:05:44.537Z,18.80
2019-01-23T04:09:10.109Z,19.42
2019-01-23T04:12:51.108Z,18.67
2019-01-23T04:20:29.868Z,19.70
2019-01-23T04:42:49.879Z,21.60
2019-01-23T04:45:31.010Z,18.12
2019-01-23T04:53:05.238Z,18.85
2019-01-23T04:55:48.424Z,20.92
2019-01-23T04:58:19.432Z,21.37
2019-01-23T05:00:49.479Z,20.95
2019-01-23T05:03:26.395Z,21.85
2019-01-23T05:06:01.970Z,21.77
2019-01-23T05:08:33.977Z,21.37
2019-01-23T05:11:04.109Z,21.87
2019-01-23T05:14:05.278Z,21.12
2019-01-23T05:16:52.052Z,21.65
2019-01-23T05:19:51.764Z,19.60
2019-01-23T05:23:10.011Z,20.77
2019-01-23T05:25:47.610Z,23.32
2019-01-23T05:28:33.705Z,21.68
2019-01-23T05:31:15.854Z,21.05
2019-01-23T05:34:04.356Z,22.30
2019-01-23T05:36:46.716Z,21.75
2019-01-23T05:39:26.979Z,19.48
2019-01-23T05:42:01.815Z,19.02
2019-01-23T05:44:38.626Z,22.13
2019-01-23T05:47:33.205Z,23.35
2019-01-23T05:50:16.590Z,19.90
2019-01-23T05:53:12.034Z,21.50
2019-01-23T05:56:06.442Z,20.32
2019-01-23T05:58:49.765Z,21.10
2019-01-23T06:01:32.581Z,20.12
2019-01-23T06:04:10.994Z,19.75
2019-01-23T06:06:44.871Z,21.60
2019-01-23T06:09:14.914Z,19.90
2019-01-23T06:11:44.913Z,20.77
2019-01-23T06:14:14.733Z,20.57
2019-01-23T06:16:44.630Z,18.92
2019-01-23T06:19:14.652Z,20.70
2019-01-23T06:21:44.601Z,19.75
2019-01-23T06:24:14.499Z,23.45
2019-01-23T06:26:50.668Z,23.02
2019-01-23T06:29:26.835Z,22.17
2019-01-23T06:32:02.666Z,17.92
2019-01-23T06:34:33.326Z,19.95
2019-01-23T06:37:03.304Z,24.45
2019-01-23T06:39:33.220Z,23.27
2019-01-23T06:42:03.510Z,19.60
2019-01-23T06:44:33.564Z,22.48
2019-01-23T06:47:03.844Z,18.85
2019-01-23T06:49:38.966Z,18.73
2019-01-23T06:52:11.113Z,20.50
2019-01-23T06:54:41.114Z,20.50
2019-01-23T06:57:12.658Z,21.52
2019-01-23T06:59:42.851Z,21.00
2019-01-23T07:02:13.103Z,20.62
2019-01-23T07:04:43.275Z,18.23
2019-01-23T07:07:13.721Z,21.48
2019-01-23T07:09:44.048Z,24.85
2019-01-23T07:12:14.472Z,19.15
2019-01-23T07:14:44.406Z,22.75
2019-01-23T07:17:16.843Z,21.80
2019-01-23T07:19:52.315Z,20.52
2019-01-23T07:22:22.414Z,20.48
2019-01-23T07:24:52.299Z,21.68
2019-01-23T07:27:22.359Z,22.52
2019-01-23T07:29:52.333Z,19.02
2019-01-23T07:32:22.578Z,16.30
2019-01-23T07:34:52.552Z,19.92
2019-01-23T07:37:23.514Z,18.62
2019-01-23T07:39:55.808Z,21.95
2019-01-23T07:42:25.964Z,18.60
2019-01-23T07:44:56.219Z,22.32
2019-01-23T07:47:27.136Z,21.27
2019-01-23T07:49:57.406Z,21.20
2019-01-23T07:52:29.079Z,18.77
2019-01-23T07:55:00.052Z,22.27
2019-01-23T07:57:30.078Z,20.32
2019-01-23T08:00:00.220Z,22.82
2019-01-23T08:02:30.231Z,22.50
2019-01-23T08:05:00.214Z,20.00
2019-01-23T08:07:30.518Z,24.20
2019-01-23T08:14:48.201Z,22.30
2019-01-23T08:17:52.111Z,23.55
2019-01-23T08:20:45.813Z,23.80
2019-01-23T08:23:16.136Z,25.08
2019-01-23T08:25:46.332Z,22.82
2019-01-23T08:28:16.770Z,24.85
2019-01-23T08:30:47.234Z,19.73
2019-01-23T08:33:17.519Z,20.27
2019-01-23T08:35:47.771Z,22.52
2019-01-23T08:38:33.086Z,21.12
2019-01-23T08:41:03.913Z,21.50
2019-01-23T08:43:38.325Z,20.52
2019-01-23T08:46:10.024Z,23.27
2019-01-23T08:48:54.660Z,19.73
2019-01-23T08:51:26.555Z,18.60
2019-01-23T08:54:10.955Z,21.95
2019-01-23T09:07:36.998Z,18.92
2019-01-23T09:10:19.519Z,26.00
2019-01-23T09:12:50.758Z,24.45
2019-01-23T09:20:07.878Z,20.85
2019-01-23T09:26:56.409Z,20.00
2019-01-23T09:29:26.618Z,22.30
2019-01-23T09:32:52.781Z,22.48
2019-01-23T09:35:48.503Z,18.65
2019-01-23T09:39:04.153Z,20.77
2019-01-23T09:41:53.536Z,22.55
2019-01-23T09:45:32.202Z,20.85
2019-01-23T09:49:14.435Z,20.62
2019-01-23T09:52:44.876Z,22.70
2019-01-23T09:55:15.410Z,20.02
2019-01-23T09:57:51.053Z,21.50
2019-01-23T10:00:27.209Z,22.05
2019-01-23T10:02:57.454Z,22.48
2019-01-23T10:05:29.809Z,22.32
2019-01-23T10:07:59.451Z,21.52
2019-01-23T10:10:29.667Z,21.48
2019-01-23T10:12:59.628Z,20.92
2019-01-23T10:15:58.239Z,21.05
2019-01-23T10:18:28.346Z,20.65
2019-01-23T10:21:01.388Z,22.93
2019-01-23T10:23:32.438Z,20.05
2019-01-23T10:26:02.641Z,21.45
2019-01-23T10:28:32.917Z,22.82
2019-01-23T10:31:06.555Z,21.57
2019-01-23T10:33:34.822Z,21.62
2019-01-23T10:36:05.252Z,20.45
2019-01-23T10:38:35.282Z,22.00
2019-01-23T10:41:05.321Z,21.68
2019-01-23T10:43:35.379Z,25.25
2019-01-23T10:46:05.334Z,21.48
2019-01-23T10:48:38.036Z,21.40
2019-01-23T10:51:07.055Z,22.02
2019-01-23T10:53:37.117Z,21.17
2019-01-23T10:56:07.056Z,20.55
2019-01-23T10:58:37.661Z,22.07
2019-01-23T11:01:13.392Z,21.15
2019-01-23T11:03:39.871Z,21.68
2019-01-23T11:06:09.984Z,20.55
2019-01-23T11:08:40.015Z,20.68
2019-01-23T11:11:10.073Z,21.65
2019-01-23T11:13:40.083Z,20.02
2019-01-23T11:16:09.974Z,19.82
2019-01-23T11:18:40.033Z,20.88
2019-01-23T11:21:10.043Z,21.77
2019-01-23T11:23:39.978Z,22.15
2019-01-23T11:26:10.770Z,22.30
2019-01-23T11:28:40.680Z,22.30
2019-01-23T11:31:31.477Z,21.15
2019-01-23T11:34:01.444Z,23.77
2019-01-23T11:36:31.669Z,21.60
2019-01-23T11:39:02.267Z,12.00
2019-01-23T11:41:32.334Z,14.10
2019-01-23T11:44:02.706Z,20.05
2019-01-23T11:46:32.628Z,19.15
2019-01-23T11:49:03.299Z,21.02
2019-01-23T11:51:33.247Z,19.25
2019-01-23T11:54:06.357Z,18.95
2019-01-23T11:56:36.347Z,19.27
2019-01-23T11:59:06.403Z,22.45
2019-01-23T12:01:37.987Z,20.00
2019-01-23T12:04:08.409Z,17.65
2019-01-23T12:06:38.542Z,21.12
2019-01-23T12:09:09.540Z,20.85
2019-01-23T12:11:39.595Z,24.92
2019-01-23T12:14:09.480Z,17.25
2019-01-23T12:16:42.558Z,19.67
2019-01-23T12:19:13.432Z,27.30
2019-01-23T12:21:43.802Z,17.95
2019-01-23T12:24:13.980Z,19.62
2019-01-23T12:26:43.962Z,21.95
2019-01-23T12:29:13.851Z,21.70
2019-01-23T12:31:43.963Z,24.98
2019-01-23T12:34:14.195Z,23.77
2019-01-23T12:36:44.567Z,24.37
2019-01-23T12:39:14.456Z,24.40
2019-01-23T12:41:44.878Z,22.80
2019-01-23T12:44:15.142Z,22.95
2019-01-23T12:47:01.731Z,23.77
2019-01-23T12:49:34.643Z,23.62
2019-01-23T12:52:05.100Z,8.93
2019-01-23T12:54:35.086Z,20.77
2019-01-23T12:57:06.483Z,24.37
2019-01-23T12:59:38.037Z,24.90
2019-01-23T13:02:09.843Z,22.50
2019-01-23T13:04:40.057Z,24.27
2019-01-23T13:07:10.201Z,19.90
2019-01-23T13:09:40.153Z,23.30
2019-01-23T13:12:10.388Z,21.23
2019-01-23T13:14:40.865Z,25.62
2019-01-23T13:17:11.767Z,21.77
2019-01-23T13:19:43.560Z,22.70
2019-01-23T13:22:16.989Z,23.50
2019-01-23T13:24:46.939Z,25.20
2019-01-23T13:27:17.064Z,20.72
2019-01-23T13:29:47.165Z,21.40
2019-01-23T13:32:17.591Z,22.98
2019-01-23T13:34:47.596Z,17.32
2019-01-23T13:37:17.652Z,17.35
2019-01-23T13:39:48.262Z,23.27
2019-01-23T13:42:18.422Z,19.92
2019-01-23T13:44:48.536Z,25.05
2019-01-23T13:47:18.998Z,23.80
2019-01-23T13:49:49.415Z,24.32
2019-01-23T13:52:19.610Z,26.10
2019-01-23T13:54:50.323Z,14.45
2019-01-23T13:57:20.804Z,16.27
2019-01-23T13:59:52.979Z,16.00
2019-01-23T14:02:23.514Z,12.75
2019-01-23T14:04:58.553Z,11.80
2019-01-23T14:07:29.584Z,26.27
2019-01-23T14:10:13.514Z,29.95
2019-01-23T14:12:45.863Z,17.82
2019-01-23T14:15:23.498Z,22.80
2019-01-23T14:17:53.864Z,17.95
2019-01-23T14:20:24.707Z,15.95
2019-01-23T14:22:56.147Z,22.30
2019-01-23T14:25:26.477Z,20.52
2019-01-23T14:27:56.618Z,15.23
2019-01-23T14:30:35.630Z,24.50
2019-01-23T14:33:05.670Z,11.53
2019-01-23T14:35:39.971Z,10.68
2019-01-23T14:38:10.937Z,12.85
2019-01-23T14:40:42.062Z,9.63
2019-01-23T14:43:13.405Z,17.82
2019-01-23T14:45:44.296Z,22.50
2019-01-23T14:48:17.314Z,20.70
2019-01-23T14:51:10.241Z,15.05
2019-01-23T14:53:40.464Z,16.40
2019-01-23T14:56:10.928Z,21.20
2019-01-23T14:58:41.176Z,10.30
2019-01-23T15:01:12.074Z,15.68
2019-01-23T15:03:42.541Z,24.95
2019-01-23T15:06:12.721Z,18.67
2019-01-23T15:08:43.047Z,11.12
2019-01-23T15:11:13.002Z,18.60
2019-01-23T15:13:44.360Z,13.83
2019-01-23T15:16:14.439Z,21.50
2019-01-23T15:18:44.460Z,22.27
2019-01-23T15:21:14.836Z,18.42
2019-01-23T15:23:44.882Z,18.52
2019-01-23T15:26:15.268Z,13.70
2019-01-23T15:28:45.445Z,13.08
2019-01-23T15:31:15.645Z,13.80
2019-01-23T15:33:45.811Z,21.27
2019-01-23T15:36:16.099Z,22.93
2019-01-23T15:38:47.972Z,14.23
2019-01-23T15:41:18.045Z,22.35
2019-01-23T15:43:48.490Z,20.65
2019-01-23T15:46:19.006Z,20.45
2019-01-23T15:48:49.344Z,19.25
2019-01-23T15:51:19.528Z,15.20
2019-01-23T15:53:55.223Z,18.02
2019-01-23T15:56:28.850Z,20.48
2019-01-23T15:58:59.048Z,13.08
2019-01-23T16:01:29.009Z,18.92
2019-01-23T16:03:59.602Z,19.42
2019-01-23T16:06:30.547Z,14.85
2019-01-23T16:09:00.657Z,17.73
2019-01-23T16:11:30.600Z,13.72
2019-01-23T16:14:00.663Z,19.25
2019-01-23T16:16:30.716Z,23.77
2019-01-23T16:19:01.038Z,18.52
2019-01-23T16:21:31.114Z,18.00
2019-01-23T16:24:01.287Z,18.45
2019-01-23T16:26:31.378Z,16.97
2019-01-23T16:29:01.443Z,13.38
2019-01-23T16:31:31.531Z,11.43
2019-01-23T16:34:05.781Z,15.13
2019-01-23T16:36:36.063Z,12.45
2019-01-23T16:39:07.832Z,11.22
2019-01-23T16:41:37.757Z,15.35
2019-01-23T16:44:07.995Z,18.60
2019-01-23T16:46:38.447Z,17.15
2019-01-23T16:49:08.503Z,13.70
2019-01-23T16:51:38.698Z,19.70
2019-01-23T16:54:08.934Z,21.35
2019-01-23T16:56:38.942Z,19.25
2019-01-23T16:59:11.603Z,20.20
2019-01-23T17:01:41.692Z,23.60
2019-01-23T17:04:11.903Z,25.43
2019-01-23T17:06:45.094Z,16.97
2019-01-23T17:09:38.695Z,11.38
2019-01-23T17:12:09.475Z,21.93
2019-01-23T17:14:40.618Z,23.50
2019-01-23T17:17:12.096Z,23.70
2019-01-23T17:19:42.242Z,23.10
2019-01-23T17:22:12.418Z,25.37
2019-01-23T17:24:42.897Z,14.18
2019-01-23T17:27:13.176Z,18.87
2019-01-23T17:29:43.499Z,19.25
2019-01-23T17:32:20.931Z,24.20
2019-01-23T17:34:51.850Z,22.73
2019-01-23T17:37:24.623Z,21.42
2019-01-23T17:39:59.438Z,14.33
2019-01-23T17:42:33.475Z,27.80
2019-01-23T17:45:07.270Z,33.90
2019-01-23T17:47:50.461Z,32.00
2019-01-23T17:50:23.239Z,20.35
2019-01-23T17:52:54.426Z,22.67
2019-01-23T17:55:43.788Z,23.45
2019-01-23T17:58:21.674Z,20.10
2019-01-23T18:01:11.439Z,14.83
2019-01-23T18:05:20.917Z,23.77
2019-01-23T18:07:01.925Z,20.75
2019-01-23T18:13:05.447Z,17.10
2019-01-23T18:16:16.258Z,21.77
2019-01-23T18:19:57.588Z,25.35
2019-01-23T18:22:48.883Z,20.37
2019-01-23T18:25:23.403Z,15.50
2019-01-23T18:27:53.557Z,12.75
2019-01-23T18:30:44.956Z,19.98
2019-01-23T18:33:17.837Z,18.02
2019-01-23T18:36:49.348Z,24.77
2019-01-23T18:40:38.768Z,17.02
2019-01-23T18:44:17.945Z,19.15
2019-01-23T18:47:37.850Z,17.45
2019-01-23T18:50:57.922Z,17.57
2019-01-23T18:53:27.927Z,24.85
2019-01-23T18:56:00.307Z,26.07
2019-01-23T18:58:30.625Z,18.20
2019-01-23T19:01:00.913Z,22.98
2019-01-23T19:03:31.055Z,24.43
2019-01-23T19:06:01.421Z,15.05
2019-01-23T19:08:31.521Z,29.02
2019-01-23T19:11:01.545Z,14.53
2019-01-23T19:13:33.267Z,23.62
2019-01-23T19:16:04.511Z,26.42
2019-01-23T19:18:58.454Z,34.38
2019-01-23T19:21:35.413Z,17.75
2019-01-23T19:24:19.600Z,14.50
2019-01-23T19:26:49.542Z,20.55
2019-01-23T19:29:20.024Z,28.60
2019-01-23T19:31:50.215Z,29.18
2019-01-23T19:34:20.335Z,31.42
2019-01-23T19:36:50.618Z,25.08
2019-01-23T19:39:20.680Z,22.67
2019-01-23T19:41:50.588Z,31.90
2019-01-23T19:44:21.601Z,22.42
2019-01-23T19:46:51.770Z,20.05
2019-01-23T19:49:24.077Z,26.20
2019-01-23T19:51:55.010Z,28.62
2019-01-23T19:54:27.954Z,25.02
2019-01-23T19:57:38.198Z,14.43
2019-01-23T20:00:18.282Z,23.73
2019-01-23T20:02:48.408Z,20.97
2019-01-23T20:05:30.845Z,22.93
2019-01-23T20:08:02.523Z,21.27
2019-01-23T20:11:48.671Z,22.27
2019-01-23T20:13:53.910Z,23.95
2019-01-23T20:16:36.193Z,27.50
2019-01-23T20:19:17.233Z,17.02
2019-01-23T20:21:48.033Z,24.27
2019-01-23T20:24:18.380Z,24.75
2019-01-23T20:26:51.458Z,27.58
2019-01-23T20:34:07.744Z,28.07
2019-01-23T20:36:38.666Z,28.60
2019-01-23T20:39:34.776Z,15.60
2019-01-23T20:42:20.047Z,18.30
2019-01-23T20:45:05.087Z,26.20
2019-01-23T20:47:45.333Z,30.02
2019-01-23T20:50:31.202Z,29.20
2019-01-23T20:53:02.264Z,23.12
2019-01-23T20:55:36.073Z,18.07
2019-01-23T20:58:13.021Z,16.00
2019-01-23T21:03:52.825Z,28.07
2019-01-23T21:06:23.840Z,25.12
2019-01-23T21:08:54.909Z,25.90
2019-01-23T21:11:48.199Z,25.90
2019-01-23T21:14:19.334Z,22.27
2019-01-23T21:16:50.470Z,22.17
2019-01-23T21:19:21.147Z,26.90
2019-01-23T21:21:51.882Z,29.70
2019-01-23T21:24:24.082Z,22.20
2019-01-23T21:26:54.892Z,32.28
2019-01-23T21:29:25.352Z,34.27
2019-01-23T21:32:13.252Z,41.77
2019-01-23T21:34:43.679Z,31.17
2019-01-23T21:37:14.002Z,30.60
2019-01-23T21:40:39.932Z,25.27
2019-01-23T21:43:14.904Z,30.95
2019-01-23T21:45:45.259Z,35.58
2019-01-23T21:48:15.352Z,35.05
2019-01-23T21:50:46.215Z,34.15
2019-01-23T21:53:16.567Z,34.15
2019-01-23T21:55:46.791Z,32.00
2019-01-23T21:58:18.281Z,34.15
2019-01-23T22:00:56.912Z,31.95
2019-01-23T22:03:48.980Z,32.10
2019-01-23T22:06:36.086Z,29.07
2019-01-23T22:10:01.751Z,29.72
2019-01-23T22:13:15.903Z,30.88
2019-01-23T22:16:39.598Z,26.82
2019-01-23T22:20:02.796Z,31.27
2019-01-23T22:22:48.873Z,28.45
2019-01-23T22:29:43.682Z,28.38
2019-01-23T22:33:11.411Z,25.95
2019-01-23T22:37:02.398Z,31.37
2019-01-23T22:39:40.905Z,28.65
2019-01-23T22:42:12.468Z,30.68
2019-01-23T22:44:43.947Z,29.72
2019-01-23T22:47:14.380Z,35.08
2019-01-23T22:49:45.846Z,35.50
2019-01-23T22:52:17.473Z,36.73
2019-01-23T22:54:47.539Z,44.73
2019-01-23T22:57:18.091Z,36.33
2019-01-23T22:59:48.048Z,38.13
2019-01-23T23:02:36.241Z,36.23
2019-01-23T23:05:04.818Z,35.05
2019-01-23T23:07:37.252Z,35.50
2019-01-23T23:10:07.982Z,31.23
2019-01-23T23:12:37.985Z,18.70
2019-01-23T23:15:33.368Z,28.60
2019-01-23T23:18:23.510Z,25.95
2019-01-23T23:21:28.004Z,24.45
2019-01-23T23:24:03.002Z,17.92
2019-01-23T23:27:09.276Z,25.20
2019-01-23T23:29:48.862Z,25.20
2019-01-23T23:32:18.838Z,30.90
2019-01-23T23:35:25.611Z,23.02
2019-01-23T23:37:41.760Z,15.05
2019-01-23T23:40:30.922Z,12.98
2019-01-23T23:43:10.341Z,24.72
2019-01-23T23:45:56.535Z,20.52
2019-01-23T23:48:40.438Z,22.50
2019-01-23T23:51:22.692Z,29.55
2019-01-23T23:53:58.163Z,31.65
2019-01-23T23:56:45.752Z,12.63
2019-01-23T23:59:27.889Z,25.02
